Aplicació Alertes

Dades de l'estació automàtica Sant Sadurní d'Anoia

?
?
Resum diari 23:00 TU
Dades diàries de l'estació meteorològica
Temperatura mitjana 8.8 °C
Temperatura màxima 17.2 °C 13:29 TU
Temperatura mínima 1.9 °C 3:17 TU
Humitat relativa mitjana 71%
Precipitació acumulada 0.0 mm
Ratxa màxima del vent (2 m) 19.8 km/h - 357º 11:18 TU
Irradiació solar global 9.9 MJ/m2

El tram horari està expressat en Temps Universal (TU). Cal sumar una hora en horari d'hivern i dues en horari d'estiu per passar a l'hora oficial.

Sant Sadurní d'Anoia

Metadades estació meteorol´gica
Municipi Sant Sadurní d'Anoia
Comarca Alt Penedès
Altitud 164 m
Data alta 11.04.2006
Estat actual Operativa
Dades de període
Període
TU
TM
°C
TX
°C
TN
°C
HRM
%
PPT
mm
VVM (2 m)
km/h
DVM (2 m)
graus
VVX (2 m)
km/h
RS
W/m2
00:00 - 00:30 5.8 6.2 5.4 77 0.0 4.7 282 9.4 0
00:30 - 01:00 5.1 5.9 3.7 80 0.0 2.9 308 6.8 0
01:00 - 01:30 3.8 5.0 2.7 85 0.0 2.5 358 6.5 0
01:30 - 02:00 2.9 3.3 2.4 90 0.0 1.1 240 5.0 0
02:00 - 02:30 3.0 3.3 2.6 89 0.0 1.1 332 4.3 0
02:30 - 03:00 2.7 3.1 2.2 90 0.0 1.4 329 4.3 0
03:00 - 03:30 2.3 2.8 1.9 92 0.0 1.1 348 6.8 0
03:30 - 04:00 2.9 4.2 2.3 90 0.0 1.4 55 6.5 0
04:00 - 04:30 3.0 3.7 2.3 91 0.0 0.7 109 2.9 0
04:30 - 05:00 3.1 3.6 2.8 91 0.0 1.8 198 5.4 0
05:00 - 05:30 3.0 3.6 2.7 91 0.0 2.2 204 5.8 0
05:30 - 06:00 2.7 3.5 2.1 91 0.0 2.2 264 5.0 0
06:00 - 06:30 2.9 3.4 2.3 92 0.0 1.1 217 4.0 0
06:30 - 07:00 3.4 4.1 2.9 90 0.0 1.8 222 5.0 6
07:00 - 07:30 4.1 4.8 3.1 87 0.0 2.5 208 6.5 53
07:30 - 08:00 4.5 4.9 3.8 86 0.0 2.5 145 6.5 96
08:00 - 08:30 5.6 6.6 4.7 83 0.0 1.1 200 4.0 139
08:30 - 09:00 8.2 9.3 6.5 74 0.0 1.1 118 4.7 247
09:00 - 09:30 9.2 10.8 8.2 71 0.0 2.9 112 6.1 327
09:30 - 10:00 11.4 11.9 10.8 64 0.0 5.0 22 13.7 383
10:00 - 10:30 12.5 13.2 11.9 60 0.0 5.8 12 15.8 426
10:30 - 11:00 13.6 14.0 13.1 57 0.0 6.8 359 16.6 461
11:00 - 11:30 14.2 14.7 13.8 55 0.0 7.6 4 19.8 480
11:30 - 12:00 15.1 15.6 14.7 52 0.0 6.5 13 16.6 487
12:00 - 12:30 15.9 16.3 15.7 50 0.0 6.1 11 16.6 478
12:30 - 13:00 16.5 16.9 16.1 48 0.0 5.8 12 14.4 454
13:00 - 13:30 16.9 17.2 16.8 46 0.0 5.8 15 15.1 418
13:30 - 14:00 17.0 17.1 16.8 44 0.0 7.6 6 16.9 369
14:00 - 14:30 16.9 17.1 16.9 44 0.0 5.8 0 13.3 297
14:30 - 15:00 17.0 17.0 16.7 44 0.0 3.6 345 8.3 236
15:00 - 15:30 16.4 16.7 16.0 46 0.0 4.0 314 9.4 156
15:30 - 16:00 15.2 15.8 14.5 51 0.0 6.1 317 10.4 70
16:00 - 16:30 14.1 14.5 13.7 54 0.0 8.3 320 15.5 9
16:30 - 17:00 13.2 13.6 12.6 56 0.0 3.2 57 13.0 0
17:00 - 17:30 11.3 12.5 10.5 62 0.0 1.1 264 4.3 0
17:30 - 18:00 10.3 11.2 9.6 66 0.0 1.4 324 6.1 0
18:00 - 18:30 10.6 10.9 9.9 64 0.0 2.9 360 9.7 0
18:30 - 19:00 9.5 10.2 8.2 68 0.0 1.1 86 4.0 0
19:00 - 19:30 8.2 9.2 7.6 73 0.0 1.4 267 6.1 0
19:30 - 20:00 9.4 9.7 9.1 68 0.0 2.5 303 9.7 0
20:00 - 20:30 9.1 9.3 8.4 69 0.0 2.9 318 9.4 0
20:30 - 21:00 7.5 8.2 7.0 76 0.0 0.7 93 4.7 0
21:00 - 21:30 7.4 7.7 6.7 76 0.0 2.2 1 10.1 0
21:30 - 22:00 7.4 7.8 6.2 75 0.0 3.6 323 10.4 0
22:00 - 22:30 6.0 6.3 5.4 81 0.0 1.8 309 5.8 0
22:30 - 23:00 5.4 6.1 4.5 83 0.0 2.2 325 7.2 0
23:00 - 23:30 5.7 6.3 4.6 81 0.0 2.5 330 9.4 0

Les dades en taronja només han passat un control de qualitat automàtic. Resta pendent la seva validació definitiva.